Time;durP1;ratioP1;P1;durP2;ratioP2;P2;SDS_P1;SDS_P2;PMS_P1;PMS_P2;Temp;Humidity;BMP_temperature;BMP_pressure;BME280_temperature;BME280_humidity;BME280_pressure;Samples;Min_cycle;Max_cycle;Signal;HPM_P1;HPM_P2
2022/01/24 00:00:17;;;;;;;0.20;0.10;;;;;;;5.38;100.00;102066.72;4988031;28;20460;-55
2022/01/24 00:02:45;;;;;;;0.20;0.10;;;;;;;5.37;100.00;102066.69;5012232;28;20448;-55
2022/01/24 00:05:12;;;;;;;0.20;0.10;;;;;;;5.42;100.00;102070.28;5012245;28;20473;-55
2022/01/24 00:07:39;;;;;;;0.20;0.10;;;;;;;5.35;100.00;102066.66;5012086;28;20448;-54
2022/01/24 00:10:11;;;;;;;0.20;0.10;;;;;;;5.24;100.00;102065.53;5003940;28;20453;-55
2022/01/24 00:12:54;;;;;;;0.20;0.10;;;;;;;5.07;100.00;102057.22;5012255;28;20470;-55
2022/01/24 00:15:50;;;;;;;0.20;0.10;;;;;;;5.00;100.00;102058.84;5012204;28;20522;-55
2022/01/24 00:18:35;;;;;;;0.20;0.10;;;;;;;4.89;100.00;102064.72;4988924;28;20449;-55
2022/01/24 00:26:46;;;;;;;0.20;0.20;;;;;;;4.45;100.00;102062.78;5012514;28;20847;-55
2022/01/24 00:29:18;;;;;;;0.20;0.10;;;;;;;4.44;100.00;102058.38;5012132;28;20575;-55
2022/01/24 00:31:45;;;;;;;0.20;0.10;;;;;;;4.27;100.00;102058.81;5012134;28;20502;-55
2022/01/24 00:34:14;;;;;;;0.20;0.20;;;;;;;4.30;100.00;102051.88;4985667;28;20512;-56
2022/01/24 00:36:41;;;;;;;0.20;0.10;;;;;;;4.14;100.00;102053.25;5012035;28;20633;-55
2022/01/24 00:39:09;;;;;;;0.20;0.10;;;;;;;4.00;100.00;102053.72;5010383;28;20457;-55
2022/01/24 00:42:30;;;;;;;0.20;0.10;;;;;;;4.01;100.00;102059.03;5012004;28;20449;-55
2022/01/24 00:47:03;;;;;;;0.20;0.10;;;;;;;4.00;100.00;102049.34;5011771;28;20976;-55
2022/01/24 00:52:57;;;;;;;0.20;0.10;;;;;;;3.92;100.00;102047.34;5011848;28;20444;-55
2022/01/24 00:55:25;;;;;;;0.20;0.20;;;;;;;3.32;100.00;102052.69;4991389;28;20554;-55
2022/01/24 00:57:51;;;;;;;0.20;0.10;;;;;;;3.15;100.00;102066.22;5014976;28;20480;-55
2022/01/24 01:00:18;;;;;;;0.20;0.10;;;;;;;3.04;100.00;102054.50;5015455;28;20460;-55
2022/01/24 01:02:45;;;;;;;0.30;0.30;;;;;;;2.98;100.00;102054.28;5015145;28;20448;-55
2022/01/24 01:18:51;;;;;;;0.70;0.70;;;;;;;2.95;100.00;102062.06;5014599;28;20440;-55
2022/01/24 01:21:18;;;;;;;0.20;0.10;;;;;;;2.77;100.00;102058.88;5010824;28;20461;-56
2022/01/24 01:23:50;;;;;;;0.20;0.10;;;;;;;2.67;100.00;102062.94;5008937;28;20503;-55
2022/01/24 01:29:00;;;;;;;0.20;0.10;;;;;;;2.67;100.00;102069.09;5014668;28;20444;-55
2022/01/24 01:34:26;;;;;;;0.20;0.10;;;;;;;2.63;100.00;102061.06;5014361;28;21005;-55
2022/01/24 01:40:04;;;;;;;0.20;0.10;;;;;;;2.60;100.00;102063.56;5013036;28;20457;-54
2022/01/24 01:55:58;;;;;;;0.20;0.10;;;;;;;2.57;100.00;102058.22;5014035;28;20535;-55
2022/01/24 01:58:25;;;;;;;0.20;0.10;;;;;;;2.50;100.00;102057.16;5013958;28;20949;-55
2022/01/24 02:00:54;;;;;;;0.20;0.10;;;;;;;2.36;100.00;102055.81;5014033;28;20452;-55
2022/01/24 02:03:23;;;;;;;0.20;0.10;;;;;;;2.35;100.00;102048.78;4996561;28;20548;-55
2022/01/24 02:05:50;;;;;;;0.20;0.10;;;;;;;2.30;100.00;102048.59;5013935;28;20453;-55
2022/01/24 02:08:18;;;;;;;0.20;0.10;;;;;;;2.27;100.00;102053.75;5012603;28;20457;-54
2022/01/24 02:10:45;;;;;;;0.20;0.10;;;;;;;2.31;100.00;102047.75;4990992;28;20456;-55
2022/01/24 02:13:12;;;;;;;0.20;0.10;;;;;;;2.25;100.00;102046.69;5014215;28;20883;-55
2022/01/24 02:16:06;;;;;;;0.20;0.10;;;;;;;2.23;100.00;102046.63;5000669;28;20445;-55
2022/01/24 02:21:12;;;;;;;0.20;0.10;;;;;;;2.32;100.00;102040.78;5011917;28;20453;-54
2022/01/24 02:23:48;;;;;;;4.37;1.13;;;;;;;2.20;100.00;102048.28;5007027;28;20464;-55
2022/01/24 02:26:20;;;;;;;0.20;0.10;;;;;;;2.15;100.00;102049.81;5013852;28;20444;-55
2022/01/24 02:34:39;;;;;;;0.20;0.10;;;;;;;2.02;100.00;102043.25;5013239;28;20528;-55
2022/01/24 02:37:09;;;;;;;0.20;0.10;;;;;;;2.07;100.00;102049.59;4989970;28;20527;-55
2022/01/24 02:51:29;;;;;;;0.20;0.10;;;;;;;1.83;100.00;102038.22;4989289;28;20938;-55
2022/01/24 02:53:20;;;;;;;0.20;0.10;;;;;;;1.78;100.00;102038.06;4986485;28;20531;-55
2022/01/24 02:55:48;;;;;;;0.20;0.20;;;;;;;1.77;100.00;102037.16;5012914;28;20857;-55
2022/01/24 02:58:16;;;;;;;0.20;0.10;;;;;;;1.89;100.00;102028.84;5012974;28;20511;-55
2022/01/24 03:00:45;;;;;;;0.20;0.10;;;;;;;1.81;100.00;102030.31;5012907;28;20882;-55
2022/01/24 03:03:13;;;;;;;0.20;0.20;;;;;;;1.67;100.00;102029.84;5012677;28;20480;-55
2022/01/24 03:05:40;;;;;;;0.20;0.10;;;;;;;1.64;100.00;102028.81;5013017;28;20460;-55
2022/01/24 03:08:07;;;;;;;0.20;0.10;;;;;;;1.60;100.00;102032.16;5012712;28;20445;-55
2022/01/24 03:10:40;;;;;;;0.20;0.10;;;;;;;1.61;100.00;102033.94;5005381;28;20456;-55
2022/01/24 03:15:38;;;;;;;0.20;0.10;;;;;;;1.83;100.00;102026.00;4999479;28;20492;-55
2022/01/24 03:18:05;;;;;;;0.20;0.10;;;;;;;1.84;100.00;102019.94;5012856;28;20973;-55
2022/01/24 03:20:33;;;;;;;0.20;0.10;;;;;;;1.57;100.00;102018.97;5012769;28;20502;-55
2022/01/24 03:23:00;;;;;;;0.20;0.10;;;;;;;1.64;100.00;102010.47;4985221;28;20461;-55
2022/01/24 03:25:27;;;;;;;0.20;0.10;;;;;;;1.51;100.00;102006.53;5012496;28;20946;-55
2022/01/24 03:27:54;;;;;;;0.57;0.57;;;;;;;1.62;100.00;102010.41;5012528;28;20445;-55
2022/01/24 03:30:21;;;;;;;0.20;0.10;;;;;;;1.68;100.00;102007.13;4995284;28;20448;-56
2022/01/24 03:32:47;;;;;;;0.20;0.20;;;;;;;1.64;100.00;102006.13;5012703;28;20463;-55
2022/01/24 03:35:14;;;;;;;0.30;0.20;;;;;;;1.61;100.00;101999.88;5012204;28;20849;-55
2022/01/24 03:37:41;;;;;;;0.20;0.10;;;;;;;1.48;100.00;101993.31;5012491;28;20500;-55
2022/01/24 03:40:08;;;;;;;0.20;0.10;;;;;;;1.52;100.00;101986.47;5011874;28;20452;-55
2022/01/24 03:42:35;;;;;;;0.20;0.10;;;;;;;1.46;100.00;101988.03;5012684;28;20459;-55
2022/01/24 03:45:05;;;;;;;0.20;0.10;;;;;;;1.60;100.00;101983.25;5012456;28;20528;-55
2022/01/24 03:50:07;;;;;;;0.20;0.10;;;;;;;1.56;100.00;101985.75;5012303;28;20495;-55
2022/01/24 03:52:34;;;;;;;0.20;0.10;;;;;;;1.43;100.00;101989.66;5012348;28;20929;-55
2022/01/24 03:55:04;;;;;;;0.20;0.10;;;;;;;1.46;100.00;101984.50;5012144;28;20468;-55
2022/01/24 03:57:30;;;;;;;0.20;0.10;;;;;;;1.36;100.00;101987.63;5012489;28;20546;-55
2022/01/24 03:59:57;;;;;;;0.20;0.10;;;;;;;1.31;100.00;101981.34;5012261;28;20471;-55
2022/01/24 04:02:27;;;;;;;0.20;0.10;;;;;;;1.33;100.00;101985.78;5012368;28;20453;-55
2022/01/24 04:04:54;;;;;;;0.20;0.10;;;;;;;1.52;100.00;101990.00;4986783;28;20559;-55
2022/01/24 04:07:21;;;;;;;0.20;0.10;;;;;;;1.24;100.00;101982.88;5012084;28;20813;-55
2022/01/24 04:09:49;;;;;;;0.20;0.10;;;;;;;1.24;100.00;101987.22;5005447;28;20957;-55
2022/01/24 04:12:16;;;;;;;0.20;0.10;;;;;;;1.16;100.00;101984.28;5012280;28;20873;-55
2022/01/24 04:22:35;;;;;;;0.20;0.10;;;;;;;0.95;100.00;101984.38;5002048;28;20461;-55
2022/01/24 04:25:05;;;;;;;0.20;0.10;;;;;;;0.91;100.00;101984.22;4996513;28;20519;-55
2022/01/24 04:27:32;;;;;;;0.20;0.10;;;;;;;0.81;100.00;101988.19;4998322;28;20448;-55
2022/01/24 04:29:58;;;;;;;0.20;0.10;;;;;;;0.76;100.00;101990.63;5015790;28;20456;-55
2022/01/24 04:32:25;;;;;;;0.20;0.10;;;;;;;0.82;100.00;101998.75;5015503;28;21007;-55
2022/01/24 04:34:51;;;;;;;0.20;0.10;;;;;;;0.88;100.00;101987.59;5016187;28;20484;-55
2022/01/24 04:37:18;;;;;;;0.20;0.10;;;;;;;0.77;100.00;101994.16;5015502;28;21017;-55
2022/01/24 04:39:45;;;;;;;0.20;0.10;;;;;;;0.66;100.00;101998.06;5014012;28;20851;-54
2022/01/24 04:42:23;;;;;;;0.20;0.10;;;;;;;0.65;100.00;101989.31;5015526;28;20452;-55
2022/01/24 04:53:11;;;;;;;0.20;0.20;;;;;;;0.59;100.00;102002.19;5015255;28;20448;-55
2022/01/24 04:55:38;;;;;;;2.37;2.27;;;;;;;0.51;100.00;101994.03;5015540;28;20452;-54
2022/01/24 04:58:05;;;;;;;0.20;0.10;;;;;;;0.54;100.00;101998.47;5015021;28;20878;-54
2022/01/24 05:00:31;;;;;;;0.20;0.10;;;;;;;0.40;100.00;102000.53;5015178;28;20492;-55
2022/01/24 05:02:58;;;;;;;0.20;0.10;;;;;;;0.36;100.00;102005.59;5014985;28;20484;-54
2022/01/24 05:05:27;;;;;;;0.20;0.10;;;;;;;0.40;100.00;102008.38;5015274;28;20449;-55
2022/01/24 05:07:54;;;;;;;0.97;0.97;;;;;;;0.45;100.00;102005.97;5014859;28;20522;-54
2022/01/24 05:10:30;;;;;;;0.20;0.10;;;;;;;0.44;100.00;101994.63;5007686;28;20445;-54
2022/01/24 05:23:58;;;;;;;0.20;0.10;;;;;;;0.18;100.00;102000.53;5010802;28;20539;-54
2022/01/24 05:26:25;;;;;;;0.20;0.10;;;;;;;0.18;100.00;101996.19;5014552;28;20449;-54
2022/01/24 05:28:51;;;;;;;0.20;0.10;;;;;;;0.25;100.00;101998.19;5014540;28;20515;-54
2022/01/24 05:31:20;;;;;;;0.20;0.10;;;;;;;0.02;100.00;101998.09;5014777;28;20476;-54
2022/01/24 05:33:48;;;;;;;0.20;0.10;;;;;;;0.44;100.00;102004.19;5014326;28;20484;-54
2022/01/24 05:36:14;;;;;;;0.20;0.10;;;;;;;0.39;100.00;101992.63;5013849;28;20522;-54
2022/01/24 05:38:41;;;;;;;0.20;0.10;;;;;;;0.09;100.00;101993.19;5012933;28;20480;-54
2022/01/24 05:41:08;;;;;;;0.20;0.10;;;;;;;-0.04;100.00;101994.38;5014426;28;20453;-54
2022/01/24 05:43:35;;;;;;;0.20;0.10;;;;;;;-0.03;100.00;101997.88;5014318;28;20473;-54
2022/01/24 05:46:02;;;;;;;0.20;0.10;;;;;;;0.05;100.00;101996.50;5014210;28;20857;-54
2022/01/24 05:48:29;;;;;;;0.20;0.10;;;;;;;-0.08;100.00;102004.66;5014147;28;20540;-54
2022/01/24 05:50:55;;;;;;;0.20;0.13;;;;;;;0.01;100.00;101998.94;5014440;28;20506;-54
2022/01/24 05:53:22;;;;;;;0.20;0.10;;;;;;;0.14;100.00;101996.00;5013971;28;20480;-54
2022/01/24 05:55:49;;;;;;;0.20;0.10;;;;;;;0.22;100.00;102003.31;5013970;28;20449;-54
2022/01/24 05:58:15;;;;;;;0.20;0.10;;;;;;;0.21;100.00;102006.75;5013884;28;20867;-54
2022/01/24 06:00:42;;;;;;;0.20;0.10;;;;;;;0.25;100.00;102005.16;5014143;28;20457;-54
2022/01/24 06:03:09;;;;;;;0.20;0.10;;;;;;;0.42;100.00;102005.88;5013677;28;20518;-54
2022/01/24 06:05:36;;;;;;;0.20;0.10;;;;;;;0.59;100.00;102012.66;5013864;28;20476;-54
2022/01/24 06:08:03;;;;;;;0.20;0.10;;;;;;;0.86;100.00;102003.25;5013460;28;20534;-54
2022/01/24 06:10:30;;;;;;;0.20;0.10;;;;;;;0.95;100.00;101997.47;5005296;28;20821;-54
2022/01/24 06:12:57;;;;;;;0.20;0.10;;;;;;;1.02;100.00;102007.34;5013621;28;20564;-54
2022/01/24 06:15:23;;;;;;;0.20;0.10;;;;;;;1.04;100.00;102004.78;5002055;28;20524;-54
2022/01/24 06:17:50;;;;;;;0.20;0.20;;;;;;;1.03;100.00;102008.25;5012185;28;20488;-54
2022/01/24 06:20:17;;;;;;;0.20;0.10;;;;;;;1.01;100.00;102008.19;5013623;28;20456;-54
2022/01/24 06:22:43;;;;;;;0.20;0.10;;;;;;;1.02;100.00;102009.97;5002788;28;20460;-54
2022/01/24 06:25:12;;;;;;;0.20;0.10;;;;;;;1.08;100.00;102010.19;5013578;28;20543;-54
2022/01/24 06:27:42;;;;;;;0.20;0.10;;;;;;;1.10;100.00;102010.25;5013519;28;20472;-54
2022/01/24 06:30:09;;;;;;;0.20;0.20;;;;;;;1.08;100.00;102017.16;5013464;28;20456;-54
2022/01/24 06:32:38;;;;;;;0.20;0.10;;;;;;;1.25;100.00;102021.31;5013402;28;20583;-54
2022/01/24 06:35:06;;;;;;;0.20;0.10;;;;;;;1.30;100.00;102016.22;5012995;28;20571;-54
2022/01/24 06:37:33;;;;;;;0.20;0.10;;;;;;;1.23;100.00;102024.69;5013419;28;20488;-54
2022/01/24 06:40:00;;;;;;;0.20;0.10;;;;;;;1.36;100.00;102017.34;5011613;28;20531;-54
2022/01/24 06:42:27;;;;;;;0.20;0.10;;;;;;;1.43;100.00;102019.34;4995886;28;20452;-54
2022/01/24 06:44:56;;;;;;;0.20;0.10;;;;;;;1.43;100.00;102031.56;5012855;28;20504;-54
2022/01/24 06:47:23;;;;;;;0.20;0.10;;;;;;;1.58;100.00;102031.22;5012734;28;20445;-54
2022/01/24 06:49:51;;;;;;;0.20;0.10;;;;;;;1.52;100.00;102034.53;5012473;28;20468;-54
2022/01/24 06:52:18;;;;;;;0.20;0.10;;;;;;;1.55;100.00;102039.88;5013084;28;20456;-53
2022/01/24 06:54:45;;;;;;;0.20;0.10;;;;;;;1.52;100.00;102047.63;5012675;28;20472;-54
2022/01/24 06:57:14;;;;;;;0.20;0.10;;;;;;;1.68;100.00;102052.59;5012769;28;20496;-54
2022/01/24 06:59:42;;;;;;;0.20;0.10;;;;;;;1.64;100.00;102040.19;5012783;28;20448;-54
2022/01/24 07:02:11;;;;;;;0.20;0.10;;;;;;;1.69;100.00;102049.13;5012890;28;20829;-54
2022/01/24 07:04:39;;;;;;;0.20;0.10;;;;;;;1.67;100.00;102055.16;4995252;28;20468;-54
2022/01/24 07:07:07;;;;;;;0.20;0.10;;;;;;;1.73;100.00;102057.97;5012910;28;20532;-54
2022/01/24 07:09:35;;;;;;;0.20;0.20;;;;;;;1.79;100.00;102066.09;5004700;28;20449;-53
2022/01/24 07:12:05;;;;;;;0.20;0.10;;;;;;;1.82;100.00;102063.56;5012920;28;20456;-54
2022/01/24 07:14:32;;;;;;;0.20;0.10;;;;;;;1.88;100.00;102063.75;5007757;28;20462;-53
2022/01/24 07:19:30;;;;;;;0.20;0.10;;;;;;;1.92;100.00;102055.19;5012457;28;20503;-53
2022/01/24 07:21:59;;;;;;;0.20;0.10;;;;;;;1.87;100.00;102059.34;5003196;28;20910;-53
2022/01/24 07:24:27;;;;;;;0.20;0.17;;;;;;;1.94;100.00;102057.84;5012136;28;20988;-53
2022/01/24 07:26:54;;;;;;;0.20;0.10;;;;;;;1.95;100.00;102057.91;5012474;28;20942;-53
2022/01/24 07:29:22;;;;;;;0.20;0.10;;;;;;;2.05;100.00;102060.00;5012306;28;20504;-54
2022/01/24 07:31:49;;;;;;;0.20;0.10;;;;;;;2.08;100.00;102064.47;4995089;28;20456;-54
2022/01/24 07:34:16;;;;;;;0.20;0.10;;;;;;;2.15;100.00;102065.56;5012398;28;20484;-54
2022/01/24 07:36:43;;;;;;;0.20;0.10;;;;;;;2.21;100.00;102069.31;5012415;28;20483;-54
2022/01/24 07:39:11;;;;;;;0.20;0.10;;;;;;;2.15;100.00;102071.69;5011281;28;20542;-54
2022/01/24 07:41:46;;;;;;;0.20;0.10;;;;;;;2.20;100.00;102062.28;5012260;28;20510;-53
2022/01/24 07:44:14;;;;;;;0.20;0.10;;;;;;;2.19;100.00;102063.09;4994144;28;20474;-54
2022/01/24 07:46:41;;;;;;;0.20;0.10;;;;;;;2.21;100.00;102060.53;4992555;28;20977;-54
2022/01/24 07:49:11;;;;;;;0.20;0.10;;;;;;;2.21;100.00;102066.69;5012508;28;20475;-54
2022/01/24 07:51:40;;;;;;;0.20;0.20;;;;;;;2.30;100.00;102060.84;4994882;28;20507;-54
2022/01/24 07:54:08;;;;;;;0.20;0.10;;;;;;;2.22;100.00;102062.31;4994791;28;20583;-54
2022/01/24 07:56:37;;;;;;;0.20;0.10;;;;;;;2.31;100.00;102054.75;5012216;28;20448;-54
2022/01/24 07:59:04;;;;;;;0.20;0.10;;;;;;;2.38;100.00;102070.75;5012727;28;20528;-54
2022/01/24 08:01:31;;;;;;;0.20;0.10;;;;;;;2.22;100.00;102063.22;5016104;28;20444;-54
2022/01/24 08:03:59;;;;;;;0.20;0.10;;;;;;;2.43;100.00;102060.41;5015954;28;20472;-54
2022/01/24 08:06:26;;;;;;;0.20;0.10;;;;;;;2.38;100.00;102056.75;5016009;28;20483;-54
2022/01/24 08:08:53;;;;;;;0.20;0.10;;;;;;;2.42;100.00;102050.75;5009650;28;20454;-54
2022/01/24 08:11:21;;;;;;;0.20;0.10;;;;;;;2.53;100.00;102051.09;5015697;28;20470;-54
2022/01/24 08:13:47;;;;;;;0.20;0.10;;;;;;;2.51;100.00;102056.31;5016161;28;20526;-54
2022/01/24 08:16:15;;;;;;;0.20;0.10;;;;;;;2.51;100.00;102058.03;5002667;28;20452;-54
2022/01/24 08:18:42;;;;;;;0.20;0.10;;;;;;;2.64;100.00;102058.50;5015805;28;20495;-54
2022/01/24 08:21:09;;;;;;;0.20;0.10;;;;;;;2.51;100.00;102052.78;5012893;28;20469;-54
2022/01/24 08:23:35;;;;;;;0.20;0.10;;;;;;;2.55;100.00;102058.19;5008865;28;20479;-54
2022/01/24 08:26:03;;;;;;;0.20;0.10;;;;;;;2.71;100.00;102056.03;5015999;28;20448;-54
2022/01/24 08:28:30;;;;;;;0.20;0.10;;;;;;;2.63;100.00;102064.59;5015572;28;20614;-54
2022/01/24 08:30:56;;;;;;;0.30;0.20;;;;;;;2.68;100.00;102057.72;5015613;28;20457;-54
2022/01/24 08:33:23;;;;;;;0.30;0.10;;;;;;;2.59;100.00;102060.06;5015489;28;20488;-54
2022/01/24 08:35:51;;;;;;;0.20;0.10;;;;;;;2.65;100.00;102054.13;5015550;28;20521;-54
2022/01/24 08:38:22;;;;;;;0.40;0.30;;;;;;;2.63;100.00;102056.72;5014387;28;21170;-54
2022/01/24 08:40:53;;;;;;;0.97;0.80;;;;;;;2.95;100.00;102060.34;5015415;28;20972;-54
2022/01/24 08:43:24;;;;;;;0.20;0.10;;;;;;;2.90;100.00;102055.81;5015314;28;21028;-54
2022/01/24 08:45:53;;;;;;;0.20;0.10;;;;;;;2.85;100.00;102054.75;5015520;28;20827;-54
2022/01/24 08:48:21;;;;;;;0.20;0.10;;;;;;;2.90;100.00;102050.53;5015391;28;20457;-54
2022/01/24 08:50:51;;;;;;;0.20;0.10;;;;;;;2.90;100.00;102053.19;5015222;28;20456;-54
2022/01/24 08:53:23;;;;;;;0.20;0.10;;;;;;;2.97;100.00;102055.13;5015320;28;20490;-54
2022/01/24 08:55:50;;;;;;;0.20;0.10;;;;;;;3.33;100.00;102057.97;5015386;28;20523;-54
2022/01/24 08:58:17;;;;;;;0.20;0.10;;;;;;;3.10;100.00;102064.28;5015189;28;20495;-54
2022/01/24 09:00:46;;;;;;;0.20;0.10;;;;;;;3.01;100.00;102063.97;5015148;28;20457;-54
2022/01/24 09:03:13;;;;;;;0.20;0.10;;;;;;;3.07;100.00;102067.72;5014795;28;20464;-54
2022/01/24 09:05:41;;;;;;;0.20;0.10;;;;;;;3.14;100.00;102069.66;5015195;28;20487;-54
2022/01/24 09:08:10;;;;;;;0.20;0.10;;;;;;;3.27;100.00;102063.94;5014681;28;20499;-54
2022/01/24 09:10:39;;;;;;;0.20;0.10;;;;;;;3.25;100.00;102078.75;5008129;28;20453;-54
2022/01/24 09:13:06;;;;;;;0.20;0.10;;;;;;;3.23;100.00;102066.44;5014711;28;20453;-54
2022/01/24 09:15:33;;;;;;;0.20;0.20;;;;;;;3.28;100.00;102067.44;5001934;28;20496;-54
2022/01/24 09:18:01;;;;;;;0.30;0.27;;;;;;;3.35;100.00;102066.78;5001731;28;20585;-54
2022/01/24 09:20:27;;;;;;;0.30;0.20;;;;;;;3.39;100.00;102060.78;5014692;28;20506;-54
2022/01/24 09:22:54;;;;;;;0.20;0.20;;;;;;;3.37;100.00;102058.94;5004209;28;20519;-54
2022/01/24 09:25:22;;;;;;;0.20;0.10;;;;;;;3.42;100.00;102059.97;5014855;28;20522;-54
2022/01/24 09:27:50;;;;;;;0.20;0.10;;;;;;;3.61;100.00;102064.94;5002067;28;20449;-54
2022/01/24 09:30:21;;;;;;;0.20;0.10;;;;;;;3.60;100.00;102063.16;5014597;28;20799;-54
2022/01/24 09:32:48;;;;;;;1.13;1.13;;;;;;;3.85;100.00;102064.72;5014774;28;20498;-54
2022/01/24 09:35:15;;;;;;;0.20;0.10;;;;;;;3.68;100.00;102068.59;5014352;28;20538;-54
2022/01/24 09:37:43;;;;;;;0.20;0.10;;;;;;;4.00;100.00;102072.13;5014655;28;20551;-54
2022/01/24 09:40:13;;;;;;;0.20;0.10;;;;;;;4.10;100.00;102076.78;5012514;28;20453;-54
2022/01/24 09:42:42;;;;;;;0.20;0.10;;;;;;;3.93;100.00;102075.44;5014368;28;20510;-54
2022/01/24 09:45:10;;;;;;;2.00;1.90;;;;;;;4.16;100.00;102079.59;5014481;28;20480;-55
2022/01/24 09:47:37;;;;;;;0.20;0.10;;;;;;;3.88;100.00;102085.84;5014410;28;20820;-54
2022/01/24 09:50:09;;;;;;;0.20;0.10;;;;;;;3.85;100.00;102084.03;5014305;28;20503;-55
2022/01/24 09:52:40;;;;;;;0.50;0.50;;;;;;;3.91;100.00;102082.41;5014388;28;20455;-54
2022/01/24 09:55:08;;;;;;;0.20;0.10;;;;;;;4.02;100.00;102080.97;5014058;28;20477;-54
2022/01/24 09:57:35;;;;;;;0.20;0.13;;;;;;;3.99;100.00;102079.16;5014233;28;20823;-54
2022/01/24 10:00:05;;;;;;;0.20;0.10;;;;;;;4.36;100.00;102080.09;5013896;28;21024;-54
2022/01/24 10:02:32;;;;;;;0.20;0.10;;;;;;;4.27;100.00;102083.41;5014302;28;20456;-54
2022/01/24 10:05:23;;;;;;;0.20;0.10;;;;;;;4.29;100.00;102083.44;5013737;28;20887;-54
2022/01/24 10:07:58;;;;;;;0.20;0.10;;;;;;;4.24;100.00;102080.66;5013857;28;20445;-54
2022/01/24 10:10:51;;;;;;;0.20;0.10;;;;;;;4.47;100.00;102082.16;5005636;28;20505;-54
2022/01/24 10:16:33;;;;;;;0.20;0.10;;;;;;;4.54;100.00;102077.06;4988865;28;20440;-54
2022/01/24 10:19:22;;;;;;;0.20;0.10;;;;;;;4.68;100.00;102075.66;5013702;28;20538;-54
2022/01/24 10:22:04;;;;;;;0.20;0.20;;;;;;;4.58;100.00;102074.53;5004146;28;20461;-54
2022/01/24 10:24:42;;;;;;;0.20;0.10;;;;;;;4.63;100.00;102074.63;4988052;28;20519;-54
2022/01/24 10:27:28;;;;;;;0.30;0.10;;;;;;;4.64;100.00;102074.66;5013455;28;20843;-54
2022/01/24 10:29:55;;;;;;;0.20;0.10;;;;;;;4.82;100.00;102073.34;5013779;28;20469;-54
2022/01/24 10:32:45;;;;;;;0.20;0.10;;;;;;;4.86;100.00;102062.00;5013394;28;20479;-54
2022/01/24 10:35:35;;;;;;;0.20;0.10;;;;;;;4.78;100.00;102063.56;5013822;28;20550;-54
2022/01/24 10:41:17;;;;;;;0.20;0.10;;;;;;;4.84;100.00;102069.88;4992513;28;20444;-55
2022/01/24 10:43:46;;;;;;;0.20;0.10;;;;;;;4.93;100.00;102069.19;5013428;28;20468;-54
2022/01/24 10:46:14;;;;;;;0.20;0.10;;;;;;;4.87;100.00;102069.06;5013479;28;20448;-54
2022/01/24 10:48:43;;;;;;;0.20;0.10;;;;;;;4.97;100.00;102066.69;5013325;28;20826;-54
2022/01/24 10:51:19;;;;;;;0.20;0.10;;;;;;;4.87;100.00;102062.03;5013152;28;20946;-54
2022/01/24 10:53:57;;;;;;;0.20;0.20;;;;;;;4.86;100.00;102052.38;5013187;28;20468;-54
2022/01/24 10:56:44;;;;;;;0.20;0.10;;;;;;;4.87;100.00;102058.53;5013695;28;20530;-54
2022/01/24 10:59:17;;;;;;;0.20;0.20;;;;;;;4.96;100.00;102049.09;5013356;28;20484;-54
2022/01/24 11:01:49;;;;;;;0.20;0.10;;;;;;;5.02;100.00;102043.06;4988605;28;20464;-54
2022/01/24 11:04:18;;;;;;;0.20;0.10;;;;;;;4.94;100.00;102048.19;4995659;28;20500;-54
2022/01/24 11:06:50;;;;;;;0.20;0.10;;;;;;;4.94;100.00;102042.91;5013015;28;21045;-54
2022/01/24 11:09:30;;;;;;;1.80;1.70;;;;;;;5.08;100.00;102058.13;5005851;28;20499;-54
2022/01/24 11:12:11;;;;;;;0.20;0.10;;;;;;;5.09;100.00;102036.19;5013021;28;20452;-55
2022/01/24 11:14:38;;;;;;;0.20;0.10;;;;;;;5.05;100.00;102037.84;5007479;28;20515;-54
2022/01/24 11:17:08;;;;;;;0.20;0.10;;;;;;;5.09;100.00;102033.56;5005817;28;20483;-54
2022/01/24 11:19:45;;;;;;;0.40;0.40;;;;;;;5.21;100.00;102033.81;5012413;28;20910;-54
2022/01/24 11:22:20;;;;;;;0.20;0.10;;;;;;;5.30;100.00;102028.72;5001441;28;20507;-55
2022/01/24 11:24:57;;;;;;;0.20;0.10;;;;;;;5.56;100.00;102019.59;4995128;28;20981;-55
2022/01/24 11:27:43;;;;;;;0.20;0.10;;;;;;;5.62;100.00;102018.84;5012649;28;20448;-54
2022/01/24 11:30:20;;;;;;;0.20;0.10;;;;;;;5.54;100.00;102017.81;4995359;28;20515;-54
2022/01/24 11:32:53;;;;;;;0.20;0.10;;;;;;;5.42;100.00;102018.44;4989185;28;20506;-54
2022/01/24 11:35:31;;;;;;;0.20;0.10;;;;;;;5.54;100.00;102013.41;5011758;28;20962;-54
2022/01/24 11:37:58;;;;;;;0.20;0.10;;;;;;;5.63;100.00;102016.25;5012315;28;20460;-54
2022/01/24 11:40:27;;;;;;;0.20;0.10;;;;;;;5.62;99.83;102026.78;5010515;28;20451;-54
2022/01/24 11:42:53;;;;;;;0.20;0.10;;;;;;;5.68;100.00;102023.34;5012358;28;20453;-55
2022/01/24 11:45:45;;;;;;;0.20;0.20;;;;;;;5.48;100.00;102028.22;5012203;28;20499;-54
2022/01/24 11:48:18;;;;;;;0.20;0.10;;;;;;;5.33;100.00;102024.41;5012522;28;20938;-55
2022/01/24 11:50:58;;;;;;;0.30;0.20;;;;;;;5.42;100.00;102026.34;5012457;28;20453;-54
2022/01/24 11:53:28;;;;;;;0.20;0.20;;;;;;;5.44;100.00;102019.34;5012160;28;20546;-54
2022/01/24 11:55:56;;;;;;;0.20;0.10;;;;;;;5.41;100.00;102021.06;5012418;28;20460;-54
2022/01/24 11:58:29;;;;;;;0.20;0.10;;;;;;;5.64;99.16;102017.13;5011966;28;20492;-54
2022/01/24 12:01:02;;;;;;;0.20;0.20;;;;;;;5.71;99.39;102018.13;5012358;28;20459;-54
2022/01/24 12:03:30;;;;;;;0.60;0.60;;;;;;;5.81;100.00;102013.06;4987511;28;20482;-55
2022/01/24 12:06:09;;;;;;;0.20;0.10;;;;;;;5.68;100.00;102007.53;5011972;28;20883;-54
2022/01/24 12:09:05;;;;;;;0.20;0.10;;;;;;;5.45;100.00;102004.41;5005652;28;21007;-54
2022/01/24 12:11:35;;;;;;;0.20;0.10;;;;;;;5.67;99.99;102006.63;4986513;28;20862;-55
2022/01/24 12:14:36;;;;;;;0.20;0.10;;;;;;;5.42;99.57;102002.63;4994180;28;20520;-54
2022/01/24 12:17:04;;;;;;;1.37;1.37;;;;;;;5.55;100.00;101996.72;5004684;28;20518;-55
2022/01/24 12:19:34;;;;;;;0.20;0.10;;;;;;;5.56;100.00;102001.13;5012162;28;20492;-55
2022/01/24 12:22:35;;;;;;;0.20;0.10;;;;;;;5.35;100.00;101992.81;5002297;28;21022;-54
2022/01/24 12:25:02;;;;;;;0.20;0.10;;;;;;;5.40;100.00;101996.44;4993842;28;20488;-55
2022/01/24 12:27:29;;;;;;;0.20;0.10;;;;;;;5.33;100.00;102005.06;5011863;28;20463;-54
2022/01/24 12:29:57;;;;;;;0.20;0.10;;;;;;;5.44;100.00;101997.38;5012519;28;20727;-54
2022/01/24 12:32:26;;;;;;;0.40;0.40;;;;;;;5.40;100.00;101999.06;5012086;28;20461;-54
2022/01/24 12:34:53;;;;;;;0.20;0.10;;;;;;;5.31;100.00;102004.13;5011934;28;21027;-54
2022/01/24 12:37:27;;;;;;;0.20;0.10;;;;;;;5.39;100.00;102005.19;5011976;28;20468;-54
2022/01/24 12:40:06;;;;;;;0.20;0.10;;;;;;;5.51;100.00;101999.28;5010543;28;20508;-54
2022/01/24 12:42:49;;;;;;;0.20;0.10;;;;;;;5.39;100.00;101999.94;5011908;28;20935;-54
2022/01/24 12:48:30;;;;;;;0.20;0.10;;;;;;;5.62;100.00;101998.63;5015401;28;20440;-55
2022/01/24 12:50:56;;;;;;;0.20;0.10;;;;;;;5.51;100.00;101996.66;5015664;28;20455;-54
2022/01/24 12:53:23;;;;;;;0.20;0.10;;;;;;;5.43;100.00;101988.56;5015310;28;20605;-55
2022/01/24 12:56:00;;;;;;;0.20;0.10;;;;;;;5.41;100.00;101990.28;5015696;28;20452;-54
2022/01/24 12:58:36;;;;;;;0.20;0.20;;;;;;;5.47;100.00;101978.97;5015164;28;20455;-54
2022/01/24 13:01:32;;;;;;;0.20;0.10;;;;;;;5.53;100.00;101984.38;4998180;28;20448;-55
2022/01/24 13:04:07;;;;;;;0.20;0.13;;;;;;;5.50;100.00;101979.94;5015489;28;20484;-54
2022/01/24 13:06:36;;;;;;;0.20;0.10;;;;;;;5.49;100.00;101982.53;5015102;28;20471;-54
2022/01/24 13:09:11;;;;;;;0.20;0.10;;;;;;;5.64;99.02;101973.19;5007397;28;20445;-55
2022/01/24 13:11:48;;;;;;;0.20;0.20;;;;;;;5.65;100.00;101974.94;5002883;28;20498;-55
2022/01/24 13:14:22;;;;;;;1.43;1.43;;;;;;;5.73;98.82;101983.00;5014981;28;20468;-56
2022/01/24 13:22:49;;;;;;;0.20;0.10;;;;;;;5.68;100.00;101962.66;5004310;28;20484;-54
2022/01/24 13:25:23;;;;;;;0.20;0.10;;;;;;;5.56;100.00;101963.34;5014849;28;21144;-54
2022/01/24 13:27:53;;;;;;;0.20;0.10;;;;;;;5.60;100.00;101970.44;4990078;28;20452;-55
2022/01/24 13:30:25;;;;;;;0.20;0.10;;;;;;;5.38;100.00;101968.25;5014582;28;20976;-54
2022/01/24 13:32:57;;;;;;;0.20;0.20;;;;;;;5.30;100.00;101966.34;5015169;28;20448;-55
2022/01/24 13:35:35;;;;;;;0.20;0.10;;;;;;;5.23;100.00;101966.22;5015031;28;20557;-54